Adams, Minnesota
Current Conditions -  °F | °C
As of 3:36 AM on Saturday 29 Nov 2014 (Local Time) from KAUM Reporting Station
Haze Haze  
Wind Chill: 20°   Ceiling: Unl
Heat Index: 27°   Visibility: 4mi
Dew Point: 25°   Wind: 6mph
Humidity: 93%   Direction: 160°SSE
Pressure: 29.56"   Gusts: NA
Location:  43.57°N, 92.72°W
Report Text: KAUM 290936Z AUTO 16005KT 4SM BR CLR M03/M04 A2956 RMK AO2
Loading
Personal Weather Stations






























Interactive Weather Map New forecast layout! Learn more

10-Day Weather Forecast

Advertisements
Track Severe Weather on mobile